Wednesday, January 17, 2018, 2:47 PM GMT
Back to Local

CYQA, Muskoka, Ont.

Location: , , Canada Lat: 44.967
Local Time: 2:47 PM GMT (14:47 GMT) Lon: -79.3
Time Zone: GMT Elev: 918 ft

Show me the last for .
Show Decoded

2018-01-17 14:36 METAR CYQA 171436Z AUTO 18007KT 4SM -SN FEW013 SCT019 M14/M16 A3025 RMK ICG
                 SLP271 =
2018-01-17 14:28 METAR CYQA 171428Z AUTO 18006KT 5SM -SN SCT013 BKN019 M15/M16 A3025 RMK ICG
                 INTMT SLP271 =
2018-01-17 14:15 METAR CYQA 171415Z AUTO 18006KT 6SM -SN BKN016 M17/M19 A3025 RMK ICG SLP272 =
2018-01-17 14:05 METAR CYQA 171405Z AUTO 18006KT 5SM -SN BKN016 M18/M21 A3025 RMK ICG SLP273 =
2018-01-17 14:00 METAR CYQA 171400Z AUTO 16004KT 9SM -SN BKN018 M19/M21 A3025 RMK ICG SLP274 =
2018-01-17 13:43 METAR CYQA 171343Z AUTO 14003KT 7SM -SN BKN016 BKN035 M22/M25 A3026 RMK ICG
                 SLP278 =
2018-01-17 13:36 METAR CYQA 171336Z AUTO 14002KT 9SM -SN SCT016 SCT035 M23/M25 A3026 RMK ICG
                 SLP279 =
2018-01-17 13:00 METAR CYQA 171300Z AUTO 14003KT 9SM CLR M23/M26 A3026 RMK ICG SLP280 =
2018-01-17 12:00 METAR CYQA 171200Z AUTO 10002KT 9SM CLR M23/M25 A3027 RMK ICG SLP283 =
2018-01-17 11:00 METAR CYQA 171100Z AUTO 00000KT 9SM CLR M22/M24 A3029 RMK ICG SLP288 =
2018-01-17 10:42 METAR CYQA 171042Z AUTO 00000KT 9SM FEW020 M21/M24 A3029 RMK ICG SLP285 =
2018-01-17 10:12 METAR CYQA 171012Z AUTO 12002KT 7SM -SN FEW021 OVC027 M20/M23 A3029 RMK ICG
                 SLP285 =
2018-01-17 10:00 METAR CYQA 171000Z AUTO 16002KT 4SM -SN FEW021 OVC027 M21/M23 A3029 RMK ICG
                 SLP285 =
2018-01-17 09:42 METAR CYQA 170942Z AUTO 00000KT 5SM -SN SCT010 BKN025 M22/M24 A3029 RMK ICG
                 SLP287 =
2018-01-17 09:37 METAR CYQA 170937Z AUTO 00000KT 9SM -SN SCT010 BKN025 M22/M25 A3029 RMK ICG
                 INTMT SLP287 =
2018-01-17 09:04 METAR CYQA 170904Z AUTO VRB02KT 9SM CLR M22/M24 A3030 RMK ICG SLP288 =
2018-01-17 09:00 METAR CYQA 170900Z AUTO 00000KT 9SM -SN CLR M21/M24 A3029 RMK ICG SLP286 =
2018-01-17 08:54 METAR CYQA 170854Z AUTO 00000KT 9SM -SN CLR M22/M24 A3030 RMK ICG INTMT SLP288 =
2018-01-17 08:47 METAR CYQA 170847Z AUTO 00000KT 9SM FEW017 M21/M23 A3030 RMK ICG SLP287 =
2018-01-17 08:07 METAR CYQA 170807Z AUTO 00000KT 6SM -SN FEW002 SCT017 M21/M23 A3030 RMK ICG
                 SLP289 =
2018-01-17 08:06 METAR CYQA 170806Z AUTO 00000KT 5SM -SN FEW002 SCT017 M21/M23 A3030 RMK ICG
                 SLP289 =
2018-01-17 08:00 METAR CYQA 170800Z AUTO VRB02KT 5SM -SN FEW002 BKN019 M21/M23 A3030 RMK ICG
                 SLP289 =
2018-01-17 07:58 METAR CYQA 170758Z AUTO 00000KT 5SM -SN FEW002 BKN019 M20/M23 A3030 RMK ICG
                 INTMT SLP289 =
2018-01-17 07:53 METAR CYQA 170753Z AUTO 00000KT 9SM -SN FEW002 BKN021 M20/M22 A3030 RMK ICG
                 SLP288 =
2018-01-17 07:00 METAR CYQA 170700Z AUTO 00000KT 9SM -SN CLR M20/M22 A3029 RMK ICG INTMT SLP286 =
2018-01-17 06:00 METAR CYQA 170600Z AUTO 14005KT 9SM -SN CLR M19/M21 A3029 RMK ICG SLP286 =
2018-01-17 05:54 METAR CYQA 170554Z AUTO VRB02KT 9SM -SN CLR M19/M21 A3029 RMK ICG SLP285 =
2018-01-17 05:53 METAR CYQA 170553Z AUTO 11003KT 010V130 9SM FEW037 M19/M21 A3029 RMK ICG SLP285
                 =
2018-01-17 05:25 METAR CYQA 170525Z AUTO 00000KT 9SM -SN SCT035 M18/M20 A3030 RMK ICG INTMT
                 SLP287 =
2018-01-17 05:24 METAR CYQA 170524Z AUTO 00000KT 9SM SCT035 M18/M20 A3030 RMK ICG INTMT SLP287 =
2018-01-17 05:00 METAR CYQA 170500Z AUTO 00000KT 9SM -SN SCT037 M16/M19 A3031 RMK ICG SLP289 =
2018-01-17 04:56 METAR CYQA 170456Z AUTO 00000KT 9SM -SN SCT037 M16/M18 A3031 RMK ICG SLP289 =
2018-01-17 04:52 METAR CYQA 170452Z AUTO 34003KT 9SM BKN037 M15/M17 A3031 RMK ICG SLP289 =
2018-01-17 04:38 METAR CYQA 170438Z AUTO 33004KT 9SM -SN OVC037 M16/M18 A3031 RMK ICG SLP290 =
2018-01-17 04:30 METAR CYQA 170430Z AUTO VRB02KT 9SM OVC037 M16/M18 A3031 RMK ICG INTMT SLP291 =
2018-01-17 04:02 METAR CYQA 170402Z AUTO 24003KT 170V240 9SM -SN OVC033 M15/M17 A3032 RMK ICG
                 SLP295 =
2018-01-17 04:00 METAR CYQA 170400Z AUTO VRB02KT 9SM OVC033 M15/M17 A3032 RMK ICG SLP295 =
2018-01-17 03:38 METAR CYQA 170338Z AUTO 18004KT 9SM OVC031 M16/M18 A3033 RMK ICG SLP297 =
2018-01-17 03:15 METAR CYQA 170315Z AUTO 00000KT 9SM -SN SCT033 M16/M18 A3032 RMK ICG SLP296 =
2018-01-17 03:09 METAR CYQA 170309Z AUTO 00000KT 9SM CLR M16/M18 A3032 RMK ICG SLP296 =
2018-01-17 03:00 METAR CYQA 170300Z AUTO 35002KT 9SM -SN FEW026 M15/M17 A3032 RMK ICG SLP296 =
2018-01-17 02:46 METAR CYQA 170246Z AUTO 35002KT 9SM -SN SCT024 M14/M16 A3032 RMK ICG SLP294 =
2018-01-17 02:00 METAR CYQA 170200Z AUTO 00000KT 9SM -SN OVC022 M15/M16 A3033 RMK ICG SLP297 =
2018-01-17 01:55 METAR CYQA 170155Z AUTO 00000KT 9SM -SN OVC022 M15/M17 A3033 RMK ICG INTMT
                 SLP298 =
2018-01-17 01:31 METAR CYQA 170131Z AUTO 00000KT 9SM BKN022 OVC028 M15/M17 A3033 RMK ICG SLP299 =
2018-01-17 01:00 METAR CYQA 170100Z AUTO 00000KT 9SM BKN027 M16/M18 A3033 RMK ICG INTMT SLP300 =
2018-01-17 00:00 METAR CYQA 170000Z AUTO 00000KT 9SM CLR M16/M18 A3032 RMK ICG SLP295 =
2018-01-16 23:28 METAR CYQA 162328Z AUTO 00000KT 6SM BR CLR M14/M15 A3032 RMK ICG INTMT SLP293 =
2018-01-16 23:27 METAR CYQA 162327Z AUTO 00000KT 3SM BR CLR M14/M15 A3032 RMK ICG INTMT SLP293 =
2018-01-16 23:17 METAR CYQA 162317Z AUTO 18002KT 1 3/4SM BR CLR M14/M15 A3032 RMK ICG SLP293 =
2018-01-16 23:16 METAR CYQA 162316Z AUTO 00000KT 2 1/2SM BR CLR M14/M15 A3032 RMK ICG SLP293 =
2018-01-16 23:14 METAR CYQA 162314Z AUTO 00000KT 5SM BR CLR M15/M16 A3032 RMK ICG SLP293 =
2018-01-16 23:00 METAR CYQA 162300Z AUTO VRB02KT 9SM CLR M14/M16 A3032 RMK ICG SLP293 =
2018-01-16 22:00 METAR CYQA 162200Z AUTO 27002KT 9SM FEW050 M11/M13 A3031 RMK ICG SLP289 =
2018-01-16 21:00 METAR CYQA 162100Z AUTO 20004KT 7SM FEW047 BKN065 M09/M12 A3030 RMK ICG SLP286 =
2018-01-16 20:53 METAR CYQA 162053Z AUTO 20003KT 9SM FEW047 BKN065 M09/M13 A3030 RMK ICG SLP286 =
2018-01-16 20:20 METAR CYQA 162020Z AUTO 19003KT 180V240 9SM -SN SCT016 BKN034 M09/M13 A3030 RMK
                 ICG INTMT SLP285 =
2018-01-16 20:18 METAR CYQA 162018Z AUTO 23003KT 190V260 9SM SCT016 BKN034 M09/M13 A3030 RMK ICG
                 INTMT SLP285 =
2018-01-16 20:00 METAR CYQA 162000Z AUTO 20004KT 9SM OVC016 M09/M13 A3030 RMK ICG INTMT SLP285 =
2018-01-16 19:29 METAR CYQA 161929Z AUTO 23003KT 210V300 9SM OVC016 M09/M13 A3029 RMK ICG SLP283
                 =
2018-01-16 19:16 METAR CYQA 161916Z AUTO 23003KT 200V310 9SM -SN OVC016 M09/M13 A3029 RMK ICG
                 SLP283 =
2018-01-16 19:00 METAR CYQA 161900Z AUTO 31003KT 250V340 9SM OVC016 M09/M13 A3029 RMK ICG INTMT
                 SLP283 =
2018-01-16 18:35 METAR CYQA 161835Z AUTO 00000KT 9SM BKN014 BKN041 M09/M13 A3029 RMK ICG SLP281 =
2018-01-16 18:29 METAR CYQA 161829Z AUTO 00000KT 9SM FEW014 SCT041 SCT075 M10/M13 A3029 RMK ICG
                 SLP281 =
2018-01-16 18:25 METAR CYQA 161825Z AUTO 00000KT 9SM FEW014 SCT041 SCT075 M10/M13 A3029 RMK
                 SLP281 =
2018-01-16 18:13 METAR CYQA 161813Z AUTO VRB02KT 9SM -SN BKN075 M10/M13 A3029 RMK SLP280 =
2018-01-16 18:12 METAR CYQA 161812Z AUTO VRB02KT 9SM BKN075 M10/M13 A3029 RMK SLP280 =
2018-01-16 18:00 METAR CYQA 161800Z AUTO 00000KT 6SM -SN FEW013 SCT055 OVC074 M10/M13 A3029 RMK
                 ICG PAST HR SLP282 =
2018-01-16 17:55 METAR CYQA 161755Z AUTO 00000KT 6SM -SN SCT030 BKN055 OVC074 M10/M14 A3029 RMK
                 ICG PAST HR SLP282 =
2018-01-16 17:41 METAR CYQA 161741Z AUTO 00000KT 3SM -SN BKN030 BKN034 OVC055 M11/M14 A3029 RMK
                 ICG PAST HR SLP284 =
2018-01-16 17:39 METAR CYQA 161739Z AUTO 00000KT 2 1/2SM -SN BKN030 BKN034 OVC055 M11/M14 A3030
                 RMK VIS VRB 1 1/2-3 ICG PAST HR SLP285 =
2018-01-16 17:36 METAR CYQA 161736Z AUTO 00000KT 2 1/2SM -SN BKN030 OVC055 M11/M14 A3030 RMK VIS
                 VRB 1 1/2-3 ICG INTMT SLP285 =
2018-01-16 17:00 METAR CYQA 161700Z AUTO 12002KT 3SM -SN OVC027 M11/M14 A3031 RMK ICG SLP290 =
2018-01-16 16:57 METAR CYQA 161657Z AUTO 13002KT 2 1/2SM -SN OVC027 M11/M14 A3031 RMK ICG SLP290
                 =
2018-01-16 16:41 METAR CYQA 161641Z AUTO 00000KT 2SM -SN OVC029 M11/M14 A3032 RMK VIS VRB 1 1/2-3
                 ICG SLP293 =
2018-01-16 16:37 METAR CYQA 161637Z AUTO 00000KT 2 1/2SM -SN OVC029 M11/M14 A3032 RMK VIS VRB 1
                 1/2-3 ICG SLP294 =
2018-01-16 16:12 METAR CYQA 161612Z AUTO 15002KT 4SM -SN BKN033 OVC043 M12/M15 A3033 RMK ICG
                 INTMT SLP296 =
2018-01-16 16:05 METAR CYQA 161605Z AUTO 16003KT 130V210 9SM -SN BKN037 OVC047 M12/M15 A3033 RMK
                 ICG SLP297 =
2018-01-16 16:04 METAR CYQA 161604Z AUTO 15004KT 130V210 9SM BKN039 OVC047 M12/M15 A3033 RMK ICG
                 SLP297 =
2018-01-16 16:00 METAR CYQA 161600Z AUTO VRB02KT 9SM -SN FEW036 OVC044 M12/M15 A3033 RMK ICG
                 SLP298 =
2018-01-16 15:51 METAR CYQA 161551Z AUTO 14003KT 7SM -SN OVC044 M12/M15 A3033 RMK ICG INTMT
                 SLP297 =
2018-01-16 15:43 METAR CYQA 161543Z AUTO 14005KT 9SM BKN038 OVC049 M12/M15 A3033 RMK ICG SLP295 =
2018-01-16 15:33 METAR CYQA 161533Z AUTO 13005KT 6SM -SN FEW028 BKN034 BKN050 OVC080 M13/M15
                 A3033 RMK ICG INTMT SLP297 =
2018-01-16 15:20 METAR CYQA 161520Z AUTO 14006KT 5SM -SN BKN028 OVC080 M13/M16 A3033 RMK ICG
                 SLP297 =
2018-01-16 15:06 METAR CYQA 161506Z AUTO VRB02KT 6SM -SN OVC030 M13/M16 A3033 RMK ICG SLP297 =
2018-01-16 15:00 METAR CYQA 161500Z AUTO 11003KT 070V140 5SM -SN FEW022 OVC030 M13/M15 A3033 RMK
                 ICG SLP297 =
2018-01-16 14:54 METAR CYQA 161454Z AUTO 11003KT 3SM -SN FEW022 OVC030 M13/M16 A3033 RMK ICG
                 INTMT SLP297 =
2018-01-16 14:53 METAR CYQA 161453Z AUTO 12003KT 2 1/2SM -SN FEW020 OVC030 M13/M16 A3033 RMK ICG
                 SLP297 =

Support USWX by starting your Amazon purchase here.